Terminal Aerodrome Forecast
Issued by NWS Charleston, WV

Home | Current Version | Previous Version | Text Only | Print | Product List | Glossary On
Versions: 1 2 3 4 5 6 7 8 9 10 11 12 13 14 15 16 17 18 19 20 21 22 23 24 25
000
FTUS41 KRLX 180800 AAA
TAFBKW
TAF AMD
KBKW 180844Z 1809/1906 00000KT 1SM BR BKN001 OVC025
     FM181200 00000KT 3SM BR BKN008
     FM181400 00000KT P6SM BKN015
     FM181600 00000KT P6SM SCT030
     FM182100 35005KT P6SM BKN030
     FM182200 36004KT P6SM SCT140=

USA.gov is the U.S. government's official web portal to all federal, state and local government web resources and services.